sensor_id;sensor_type;location;lat;lon;timestamp;temperature;humidity
58153;DHT22;43967;51.634;5.566;2022-07-29T00:04:39;23.90;49.60
58153;DHT22;43967;51.634;5.566;2022-07-29T00:09:40;23.90;49.70
58153;DHT22;43967;51.634;5.566;2022-07-29T00:14:41;23.90;49.60
58153;DHT22;43967;51.634;5.566;2022-07-29T00:19:42;23.90;49.70
58153;DHT22;43967;51.634;5.566;2022-07-29T00:24:43;23.90;49.70
58153;DHT22;43967;51.634;5.566;2022-07-29T00:29:44;23.80;49.70
58153;DHT22;43967;51.634;5.566;2022-07-29T00:34:46;23.90;49.80
58153;DHT22;43967;51.634;5.566;2022-07-29T00:39:47;23.90;49.70
58153;DHT22;43967;51.634;5.566;2022-07-29T00:44:48;23.90;49.80
58153;DHT22;43967;51.634;5.566;2022-07-29T00:49:49;23.90;49.80
58153;DHT22;43967;51.634;5.566;2022-07-29T00:54:50;23.80;49.70
58153;DHT22;43967;51.634;5.566;2022-07-29T00:59:51;23.90;49.80
58153;DHT22;43967;51.634;5.566;2022-07-29T01:04:53;23.80;49.70
58153;DHT22;43967;51.634;5.566;2022-07-29T01:09:55;23.90;49.80
58153;DHT22;43967;51.634;5.566;2022-07-29T01:14:56;23.90;49.80
58153;DHT22;43967;51.634;5.566;2022-07-29T01:20:14;23.80;49.80
58153;DHT22;43967;51.634;5.566;2022-07-29T01:30:38;23.80;49.80
58153;DHT22;43967;51.634;5.566;2022-07-29T01:35:43;23.80;49.80
58153;DHT22;43967;51.634;5.566;2022-07-29T01:40:48;23.80;49.80
58153;DHT22;43967;51.634;5.566;2022-07-29T01:45:55;23.80;49.90
58153;DHT22;43967;51.634;5.566;2022-07-29T01:51:18;23.80;49.80
58153;DHT22;43967;51.634;5.566;2022-07-29T01:56:20;23.80;49.90
58153;DHT22;43967;51.634;5.566;2022-07-29T02:01:24;23.80;50.00
58153;DHT22;43967;51.634;5.566;2022-07-29T02:06:27;23.80;50.00
58153;DHT22;43967;51.634;5.566;2022-07-29T02:11:34;23.80;50.10
58153;DHT22;43967;51.634;5.566;2022-07-29T02:16:36;23.80;50.20
58153;DHT22;43967;51.634;5.566;2022-07-29T02:21:39;23.80;50.20
58153;DHT22;43967;51.634;5.566;2022-07-29T02:26:41;23.80;50.20
58153;DHT22;43967;51.634;5.566;2022-07-29T02:31:44;23.80;50.30
58153;DHT22;43967;51.634;5.566;2022-07-29T02:36:47;23.80;50.40
58153;DHT22;43967;51.634;5.566;2022-07-29T02:41:52;23.80;50.30
58153;DHT22;43967;51.634;5.566;2022-07-29T02:57:47;23.80;50.40
58153;DHT22;43967;51.634;5.566;2022-07-29T03:02:52;23.80;50.50
58153;DHT22;43967;51.634;5.566;2022-07-29T03:08:06;23.80;50.70
58153;DHT22;43967;51.634;5.566;2022-07-29T03:13:08;23.80;50.60
58153;DHT22;43967;51.634;5.566;2022-07-29T03:18:10;23.70;50.70
58153;DHT22;43967;51.634;5.566;2022-07-29T03:23:11;23.80;50.80
58153;DHT22;43967;51.634;5.566;2022-07-29T03:28:12;23.70;50.70
58153;DHT22;43967;51.634;5.566;2022-07-29T03:33:13;23.70;50.80
58153;DHT22;43967;51.634;5.566;2022-07-29T03:38:14;23.70;50.90
58153;DHT22;43967;51.634;5.566;2022-07-29T03:43:17;23.70;50.80
58153;DHT22;43967;51.634;5.566;2022-07-29T03:48:21;23.70;50.90
58153;DHT22;43967;51.634;5.566;2022-07-29T03:53:22;23.70;51.10
58153;DHT22;43967;51.634;5.566;2022-07-29T03:58:26;23.70;51.00
58153;DHT22;43967;51.634;5.566;2022-07-29T04:03:28;23.70;51.00
58153;DHT22;43967;51.634;5.566;2022-07-29T04:08:29;23.70;51.00
58153;DHT22;43967;51.634;5.566;2022-07-29T04:13:31;23.70;51.10
58153;DHT22;43967;51.634;5.566;2022-07-29T04:18:32;23.70;51.20
58153;DHT22;43967;51.634;5.566;2022-07-29T04:23:33;23.70;51.40
58153;DHT22;43967;51.634;5.566;2022-07-29T04:28:35;23.70;51.50
58153;DHT22;43967;51.634;5.566;2022-07-29T04:33:36;23.70;51.90
58153;DHT22;43967;51.634;5.566;2022-07-29T04:38:37;23.70;51.90
58153;DHT22;43967;51.634;5.566;2022-07-29T04:43:39;23.60;51.80
58153;DHT22;43967;51.634;5.566;2022-07-29T04:48:40;23.60;51.80
58153;DHT22;43967;51.634;5.566;2022-07-29T04:53:41;23.60;51.90
58153;DHT22;43967;51.634;5.566;2022-07-29T04:58:42;23.60;51.90
58153;DHT22;43967;51.634;5.566;2022-07-29T05:03:43;23.60;52.00
58153;DHT22;43967;51.634;5.566;2022-07-29T05:08:44;23.60;52.00
58153;DHT22;43967;51.634;5.566;2022-07-29T05:13:45;23.50;51.90
58153;DHT22;43967;51.634;5.566;2022-07-29T05:18:46;23.50;52.70
58153;DHT22;43967;51.634;5.566;2022-07-29T05:23:50;22.70;55.70
58153;DHT22;43967;51.634;5.566;2022-07-29T05:28:55;21.90;58.10
58153;DHT22;43967;51.634;5.566;2022-07-29T05:33:56;21.50;59.50
58153;DHT22;43967;51.634;5.566;2022-07-29T05:38:58;21.60;60.20
58153;DHT22;43967;51.634;5.566;2022-07-29T05:43:59;21.50;60.60
58153;DHT22;43967;51.634;5.566;2022-07-29T05:49:00;21.30;60.90
58153;DHT22;43967;51.634;5.566;2022-07-29T05:54:01;21.10;60.90
58153;DHT22;43967;51.634;5.566;2022-07-29T05:59:03;20.90;61.40
58153;DHT22;43967;51.634;5.566;2022-07-29T06:04:04;20.90;61.40
58153;DHT22;43967;51.634;5.566;2022-07-29T06:09:05;20.80;61.50
58153;DHT22;43967;51.634;5.566;2022-07-29T06:14:06;20.80;61.80
58153;DHT22;43967;51.634;5.566;2022-07-29T06:19:07;20.70;62.50
58153;DHT22;43967;51.634;5.566;2022-07-29T06:24:09;20.70;62.20
58153;DHT22;43967;51.634;5.566;2022-07-29T06:29:11;20.70;62.40
58153;DHT22;43967;51.634;5.566;2022-07-29T06:34:12;20.60;62.00
58153;DHT22;43967;51.634;5.566;2022-07-29T06:39:13;20.70;61.70
58153;DHT22;43967;51.634;5.566;2022-07-29T06:44:14;20.60;62.00
58153;DHT22;43967;51.634;5.566;2022-07-29T06:49:15;20.50;62.60
58153;DHT22;43967;51.634;5.566;2022-07-29T06:54:16;20.70;62.20
58153;DHT22;43967;51.634;5.566;2022-07-29T06:59:18;20.70;62.60
58153;DHT22;43967;51.634;5.566;2022-07-29T07:04:19;20.70;62.50
58153;DHT22;43967;51.634;5.566;2022-07-29T07:09:20;20.70;62.50
58153;DHT22;43967;51.634;5.566;2022-07-29T07:14:22;20.80;62.60
58153;DHT22;43967;51.634;5.566;2022-07-29T07:19:23;20.80;62.10
58153;DHT22;43967;51.634;5.566;2022-07-29T07:25:02;20.70;62.40
58153;DHT22;43967;51.634;5.566;2022-07-29T07:30:24;20.90;62.40
58153;DHT22;43967;51.634;5.566;2022-07-29T07:35:34;21.00;62.20
58153;DHT22;43967;51.634;5.566;2022-07-29T07:40:35;21.00;62.70
58153;DHT22;43967;51.634;5.566;2022-07-29T07:45:36;20.90;62.80
58153;DHT22;43967;51.634;5.566;2022-07-29T07:50:37;21.00;62.20
58153;DHT22;43967;51.634;5.566;2022-07-29T07:55:42;20.90;62.40
58153;DHT22;43967;51.634;5.566;2022-07-29T08:00:44;21.00;62.30
58153;DHT22;43967;51.634;5.566;2022-07-29T08:05:45;21.10;62.40
58153;DHT22;43967;51.634;5.566;2022-07-29T08:10:46;21.10;62.00
58153;DHT22;43967;51.634;5.566;2022-07-29T08:15:47;21.40;61.50
58153;DHT22;43967;51.634;5.566;2022-07-29T08:20:49;21.60;61.10
58153;DHT22;43967;51.634;5.566;2022-07-29T08:25:50;21.70;60.40
58153;DHT22;43967;51.634;5.566;2022-07-29T08:30:51;22.00;60.30
58153;DHT22;43967;51.634;5.566;2022-07-29T08:35:52;22.20;59.60
58153;DHT22;43967;51.634;5.566;2022-07-29T08:40:53;22.10;59.50
58153;DHT22;43967;51.634;5.566;2022-07-29T08:45:55;22.30;59.00
58153;DHT22;43967;51.634;5.566;2022-07-29T08:50:56;22.50;58.80
58153;DHT22;43967;51.634;5.566;2022-07-29T08:55:58;22.60;58.80
58153;DHT22;43967;51.634;5.566;2022-07-29T09:01:01;22.80;58.70
58153;DHT22;43967;51.634;5.566;2022-07-29T09:06:03;22.90;58.40
58153;DHT22;43967;51.634;5.566;2022-07-29T09:11:04;23.00;58.10
58153;DHT22;43967;51.634;5.566;2022-07-29T09:16:06;23.10;57.90
58153;DHT22;43967;51.634;5.566;2022-07-29T09:21:09;23.20;57.80
58153;DHT22;43967;51.634;5.566;2022-07-29T09:26:11;23.30;57.10
58153;DHT22;43967;51.634;5.566;2022-07-29T09:31:12;23.40;56.90
58153;DHT22;43967;51.634;5.566;2022-07-29T09:36:13;23.50;56.80
58153;DHT22;43967;51.634;5.566;2022-07-29T09:41:14;23.50;56.80
58153;DHT22;43967;51.634;5.566;2022-07-29T09:46:15;23.60;56.60
58153;DHT22;43967;51.634;5.566;2022-07-29T09:51:20;23.50;56.20
58153;DHT22;43967;51.634;5.566;2022-07-29T09:56:39;23.60;56.30
58153;DHT22;43967;51.634;5.566;2022-07-29T10:01:41;23.60;56.20
58153;DHT22;43967;51.634;5.566;2022-07-29T10:07:00;23.70;56.10
58153;DHT22;43967;51.634;5.566;2022-07-29T10:12:05;23.80;55.80
58153;DHT22;43967;51.634;5.566;2022-07-29T10:17:08;23.70;55.60
58153;DHT22;43967;51.634;5.566;2022-07-29T10:22:10;23.80;55.90
58153;DHT22;43967;51.634;5.566;2022-07-29T10:27:11;23.80;55.40
58153;DHT22;43967;51.634;5.566;2022-07-29T10:32:25;23.90;55.70
58153;DHT22;43967;51.634;5.566;2022-07-29T10:43:18;24.00;56.10
58153;DHT22;43967;51.634;5.566;2022-07-29T10:48:19;24.10;55.40
58153;DHT22;43967;51.634;5.566;2022-07-29T10:53:22;24.10;55.40
58153;DHT22;43967;51.634;5.566;2022-07-29T10:58:23;24.10;55.20
58153;DHT22;43967;51.634;5.566;2022-07-29T11:03:57;24.10;55.10
58153;DHT22;43967;51.634;5.566;2022-07-29T11:09:19;24.20;54.70
58153;DHT22;43967;51.634;5.566;2022-07-29T11:14:58;24.30;54.10
58153;DHT22;43967;51.634;5.566;2022-07-29T11:20:35;24.30;53.50
58153;DHT22;43967;51.634;5.566;2022-07-29T11:25:37;24.30;53.50
58153;DHT22;43967;51.634;5.566;2022-07-29T11:30:49;24.30;53.30
58153;DHT22;43967;51.634;5.566;2022-07-29T11:36:10;24.30;53.40
58153;DHT22;43967;51.634;5.566;2022-07-29T11:41:22;24.40;53.20
58153;DHT22;43967;51.634;5.566;2022-07-29T11:46:47;24.30;53.10
58153;DHT22;43967;51.634;5.566;2022-07-29T11:51:56;24.30;53.00
58153;DHT22;43967;51.634;5.566;2022-07-29T11:56:58;24.30;53.20
58153;DHT22;43967;51.634;5.566;2022-07-29T12:01:59;24.30;52.80
58153;DHT22;43967;51.634;5.566;2022-07-29T12:07:00;24.30;53.10
58153;DHT22;43967;51.634;5.566;2022-07-29T12:12:02;24.40;53.20
58153;DHT22;43967;51.634;5.566;2022-07-29T12:17:03;24.40;52.80
58153;DHT22;43967;51.634;5.566;2022-07-29T12:22:04;24.50;52.70
58153;DHT22;43967;51.634;5.566;2022-07-29T12:27:05;24.40;52.90
58153;DHT22;43967;51.634;5.566;2022-07-29T12:32:06;24.70;52.30
58153;DHT22;43967;51.634;5.566;2022-07-29T12:37:08;24.50;52.40
58153;DHT22;43967;51.634;5.566;2022-07-29T12:42:14;24.50;52.70
58153;DHT22;43967;51.634;5.566;2022-07-29T12:47:19;24.50;52.60
58153;DHT22;43967;51.634;5.566;2022-07-29T12:52:32;24.50;52.90
58153;DHT22;43967;51.634;5.566;2022-07-29T12:57:45;24.90;51.80
58153;DHT22;43967;51.634;5.566;2022-07-29T13:02:55;25.00;51.40
58153;DHT22;43967;51.634;5.566;2022-07-29T13:08:12;25.20;50.80
58153;DHT22;43967;51.634;5.566;2022-07-29T13:13:14;25.20;50.40
58153;DHT22;43967;51.634;5.566;2022-07-29T13:18:33;25.00;51.20
58153;DHT22;43967;51.634;5.566;2022-07-29T13:23:34;24.90;52.00
58153;DHT22;43967;51.634;5.566;2022-07-29T13:28:35;25.10;50.50
58153;DHT22;43967;51.634;5.566;2022-07-29T13:33:36;25.10;51.20
58153;DHT22;43967;51.634;5.566;2022-07-29T13:38:38;25.20;50.60
58153;DHT22;43967;51.634;5.566;2022-07-29T13:43:40;25.00;51.10
58153;DHT22;43967;51.634;5.566;2022-07-29T13:48:41;24.90;51.40
58153;DHT22;43967;51.634;5.566;2022-07-29T13:53:42;24.80;51.40
58153;DHT22;43967;51.634;5.566;2022-07-29T13:58:43;25.00;50.90
58153;DHT22;43967;51.634;5.566;2022-07-29T14:03:44;24.90;50.50
58153;DHT22;43967;51.634;5.566;2022-07-29T14:08:45;24.90;50.90
58153;DHT22;43967;51.634;5.566;2022-07-29T14:13:46;24.90;50.50
58153;DHT22;43967;51.634;5.566;2022-07-29T14:18:47;24.90;51.00
58153;DHT22;43967;51.634;5.566;2022-07-29T14:23:48;25.00;51.00
58153;DHT22;43967;51.634;5.566;2022-07-29T14:28:49;25.10;50.80
58153;DHT22;43967;51.634;5.566;2022-07-29T14:33:50;25.10;50.70
58153;DHT22;43967;51.634;5.566;2022-07-29T14:38:51;25.00;50.60
58153;DHT22;43967;51.634;5.566;2022-07-29T14:43:53;24.90;50.40
58153;DHT22;43967;51.634;5.566;2022-07-29T14:48:54;24.90;50.70
58153;DHT22;43967;51.634;5.566;2022-07-29T14:53:55;24.90;50.80
58153;DHT22;43967;51.634;5.566;2022-07-29T14:58:56;24.90;51.00
58153;DHT22;43967;51.634;5.566;2022-07-29T15:04:00;24.90;50.90
58153;DHT22;43967;51.634;5.566;2022-07-29T15:09:01;24.80;51.10
58153;DHT22;43967;51.634;5.566;2022-07-29T15:14:02;24.90;51.20
58153;DHT22;43967;51.634;5.566;2022-07-29T15:19:04;24.90;51.30
58153;DHT22;43967;51.634;5.566;2022-07-29T15:24:05;24.90;51.20
58153;DHT22;43967;51.634;5.566;2022-07-29T15:29:06;24.80;51.00
58153;DHT22;43967;51.634;5.566;2022-07-29T15:34:07;24.90;50.70
58153;DHT22;43967;51.634;5.566;2022-07-29T15:39:08;25.00;51.20
58153;DHT22;43967;51.634;5.566;2022-07-29T15:44:09;25.00;51.30
58153;DHT22;43967;51.634;5.566;2022-07-29T15:49:10;24.90;51.40
58153;DHT22;43967;51.634;5.566;2022-07-29T15:54:11;24.90;51.60
58153;DHT22;43967;51.634;5.566;2022-07-29T15:59:12;24.90;51.20
58153;DHT22;43967;51.634;5.566;2022-07-29T16:04:14;24.90;51.20
58153;DHT22;43967;51.634;5.566;2022-07-29T16:09:16;24.90;51.10
58153;DHT22;43967;51.634;5.566;2022-07-29T16:14:19;24.90;50.90
58153;DHT22;43967;51.634;5.566;2022-07-29T16:19:20;25.00;51.00
58153;DHT22;43967;51.634;5.566;2022-07-29T16:24:27;24.90;50.60
58153;DHT22;43967;51.634;5.566;2022-07-29T16:29:28;25.00;50.30
58153;DHT22;43967;51.634;5.566;2022-07-29T16:34:29;24.90;50.40
58153;DHT22;43967;51.634;5.566;2022-07-29T16:39:30;24.90;50.40
58153;DHT22;43967;51.634;5.566;2022-07-29T16:44:31;24.90;49.70
58153;DHT22;43967;51.634;5.566;2022-07-29T16:49:35;24.90;50.10
58153;DHT22;43967;51.634;5.566;2022-07-29T16:54:36;24.90;49.10
58153;DHT22;43967;51.634;5.566;2022-07-29T16:59:38;24.90;49.00
58153;DHT22;43967;51.634;5.566;2022-07-29T17:04:39;24.90;49.30
58153;DHT22;43967;51.634;5.566;2022-07-29T17:09:40;24.90;48.70
58153;DHT22;43967;51.634;5.566;2022-07-29T17:14:41;24.90;48.10
58153;DHT22;43967;51.634;5.566;2022-07-29T17:19:44;24.90;47.70
58153;DHT22;43967;51.634;5.566;2022-07-29T17:24:46;24.90;47.50
58153;DHT22;43967;51.634;5.566;2022-07-29T17:29:47;24.90;48.00
58153;DHT22;43967;51.634;5.566;2022-07-29T17:34:48;24.90;47.60
58153;DHT22;43967;51.634;5.566;2022-07-29T17:39:50;24.80;48.20
58153;DHT22;43967;51.634;5.566;2022-07-29T17:44:51;24.80;48.00
58153;DHT22;43967;51.634;5.566;2022-07-29T17:49:52;24.80;47.90
58153;DHT22;43967;51.634;5.566;2022-07-29T17:54:53;24.80;48.50
58153;DHT22;43967;51.634;5.566;2022-07-29T17:59:54;24.80;48.60
58153;DHT22;43967;51.634;5.566;2022-07-29T18:04:55;24.80;48.70
58153;DHT22;43967;51.634;5.566;2022-07-29T18:09:56;24.80;49.10
58153;DHT22;43967;51.634;5.566;2022-07-29T18:14:57;24.70;49.40
58153;DHT22;43967;51.634;5.566;2022-07-29T18:19:58;24.70;49.60
58153;DHT22;43967;51.634;5.566;2022-07-29T18:25:02;24.60;49.70
58153;DHT22;43967;51.634;5.566;2022-07-29T18:30:06;24.60;49.80
58153;DHT22;43967;51.634;5.566;2022-07-29T18:35:07;24.50;50.00
58153;DHT22;43967;51.634;5.566;2022-07-29T18:40:09;24.50;50.30
58153;DHT22;43967;51.634;5.566;2022-07-29T18:45:10;24.50;50.50
58153;DHT22;43967;51.634;5.566;2022-07-29T18:50:11;24.40;51.20
58153;DHT22;43967;51.634;5.566;2022-07-29T18:55:15;24.30;51.40
58153;DHT22;43967;51.634;5.566;2022-07-29T19:00:16;24.20;51.70
58153;DHT22;43967;51.634;5.566;2022-07-29T19:05:17;24.20;51.90
58153;DHT22;43967;51.634;5.566;2022-07-29T19:10:19;24.10;52.10
58153;DHT22;43967;51.634;5.566;2022-07-29T19:15:20;24.10;52.60
58153;DHT22;43967;51.634;5.566;2022-07-29T19:20:21;24.00;52.90
58153;DHT22;43967;51.634;5.566;2022-07-29T19:25:22;23.90;53.20
58153;DHT22;43967;51.634;5.566;2022-07-29T19:30:23;23.90;53.20
58153;DHT22;43967;51.634;5.566;2022-07-29T19:35:24;23.80;53.10
58153;DHT22;43967;51.634;5.566;2022-07-29T19:40:27;23.70;53.30
58153;DHT22;43967;51.634;5.566;2022-07-29T19:45:28;23.70;53.70
58153;DHT22;43967;51.634;5.566;2022-07-29T19:50:30;23.60;53.60
58153;DHT22;43967;51.634;5.566;2022-07-29T19:55:31;23.60;53.90
58153;DHT22;43967;51.634;5.566;2022-07-29T20:00:35;23.50;55.00
58153;DHT22;43967;51.634;5.566;2022-07-29T20:05:38;23.40;54.00
58153;DHT22;43967;51.634;5.566;2022-07-29T20:10:40;23.30;54.10
58153;DHT22;43967;51.634;5.566;2022-07-29T20:15:43;23.30;54.10
58153;DHT22;43967;51.634;5.566;2022-07-29T20:20:44;23.30;54.20
58153;DHT22;43967;51.634;5.566;2022-07-29T20:25:45;23.20;54.40
58153;DHT22;43967;51.634;5.566;2022-07-29T20:30:46;23.10;54.80
58153;DHT22;43967;51.634;5.566;2022-07-29T20:35:47;23.10;54.80
58153;DHT22;43967;51.634;5.566;2022-07-29T20:40:51;23.10;55.10
58153;DHT22;43967;51.634;5.566;2022-07-29T20:45:52;23.00;55.30
58153;DHT22;43967;51.634;5.566;2022-07-29T20:50:53;23.00;55.60
58153;DHT22;43967;51.634;5.566;2022-07-29T20:55:54;23.00;55.40
58153;DHT22;43967;51.634;5.566;2022-07-29T21:00:55;23.10;55.50
58153;DHT22;43967;51.634;5.566;2022-07-29T21:05:59;23.00;55.60
58153;DHT22;43967;51.634;5.566;2022-07-29T21:11:00;23.00;55.60
58153;DHT22;43967;51.634;5.566;2022-07-29T21:16:01;23.00;55.90
58153;DHT22;43967;51.634;5.566;2022-07-29T21:21:03;23.00;55.70
58153;DHT22;43967;51.634;5.566;2022-07-29T21:26:05;23.10;55.20
58153;DHT22;43967;51.634;5.566;2022-07-29T21:31:12;22.90;55.90
58153;DHT22;43967;51.634;5.566;2022-07-29T21:36:13;22.80;56.30
58153;DHT22;43967;51.634;5.566;2022-07-29T21:41:14;23.30;55.30
58153;DHT22;43967;51.634;5.566;2022-07-29T21:46:15;23.60;54.60
58153;DHT22;43967;51.634;5.566;2022-07-29T21:51:16;23.80;54.20
58153;DHT22;43967;51.634;5.566;2022-07-29T21:56:17;23.90;53.90
58153;DHT22;43967;51.634;5.566;2022-07-29T22:01:18;23.90;53.60
58153;DHT22;43967;51.634;5.566;2022-07-29T22:06:19;24.00;53.40
58153;DHT22;43967;51.634;5.566;2022-07-29T22:11:20;24.10;53.40
58153;DHT22;43967;51.634;5.566;2022-07-29T22:16:21;24.10;53.20
58153;DHT22;43967;51.634;5.566;2022-07-29T22:21:22;24.10;53.20
58153;DHT22;43967;51.634;5.566;2022-07-29T22:26:24;24.10;53.10
58153;DHT22;43967;51.634;5.566;2022-07-29T22:31:25;24.20;53.10
58153;DHT22;43967;51.634;5.566;2022-07-29T22:36:26;24.20;53.10
58153;DHT22;43967;51.634;5.566;2022-07-29T22:41:27;24.20;53.10
58153;DHT22;43967;51.634;5.566;2022-07-29T22:46:28;24.20;53.00
58153;DHT22;43967;51.634;5.566;2022-07-29T22:51:29;24.20;53.00
58153;DHT22;43967;51.634;5.566;2022-07-29T22:56:30;24.20;53.00
58153;DHT22;43967;51.634;5.566;2022-07-29T23:01:31;24.20;53.00
58153;DHT22;43967;51.634;5.566;2022-07-29T23:06:32;24.20;53.00
58153;DHT22;43967;51.634;5.566;2022-07-29T23:11:34;24.20;53.10
58153;DHT22;43967;51.634;5.566;2022-07-29T23:16:35;24.20;53.00
58153;DHT22;43967;51.634;5.566;2022-07-29T23:21:36;24.20;53.10
58153;DHT22;43967;51.634;5.566;2022-07-29T23:26:37;24.30;53.20
58153;DHT22;43967;51.634;5.566;2022-07-29T23:31:38;24.20;53.10
58153;DHT22;43967;51.634;5.566;2022-07-29T23:36:39;24.20;53.10
58153;DHT22;43967;51.634;5.566;2022-07-29T23:41:40;24.20;53.20
58153;DHT22;43967;51.634;5.566;2022-07-29T23:46:41;24.20;53.30
58153;DHT22;43967;51.634;5.566;2022-07-29T23:51:42;24.20;53.30
58153;DHT22;43967;51.634;5.566;2022-07-29T23:56:43;24.20;53.30
